createdAt,value
2017-12-24T00:01:18.970Z,1.96
2017-12-24T00:03:46.583Z,2.02
2017-12-24T00:06:14.294Z,2.05
2017-12-24T00:08:41.955Z,2.03
2017-12-24T00:11:09.610Z,2.09
2017-12-24T00:13:37.274Z,2.07
2017-12-24T00:16:04.891Z,2.07
2017-12-24T00:18:32.551Z,2.06
2017-12-24T00:21:00.202Z,2.11
2017-12-24T00:23:27.799Z,2.12
2017-12-24T00:25:55.402Z,2.13
2017-12-24T00:28:23.071Z,2.16
2017-12-24T00:30:50.734Z,2.14
2017-12-24T00:33:18.387Z,2.20
2017-12-24T00:35:45.999Z,2.29
2017-12-24T00:38:13.603Z,2.34
2017-12-24T00:40:41.210Z,2.38
2017-12-24T00:43:08.867Z,2.34
2017-12-24T00:45:36.522Z,2.29
2017-12-24T00:48:04.130Z,2.34
2017-12-24T00:50:31.730Z,2.29
2017-12-24T00:52:59.350Z,2.18
2017-12-24T00:55:26.955Z,2.15
2017-12-24T00:57:54.606Z,2.27
2017-12-24T01:00:22.230Z,2.22
2017-12-24T01:02:49.986Z,2.17
2017-12-24T01:05:17.602Z,2.08
2017-12-24T01:07:45.208Z,2.02
2017-12-24T01:10:12.947Z,2.00
2017-12-24T01:12:40.610Z,1.97
2017-12-24T01:15:08.295Z,1.91
2017-12-24T01:17:35.910Z,1.96
2017-12-24T01:20:03.519Z,1.91
2017-12-24T01:22:31.170Z,1.94
2017-12-24T01:24:58.776Z,1.98
2017-12-24T01:27:26.446Z,2.04
2017-12-24T01:29:54.058Z,2.13
2017-12-24T01:32:21.691Z,2.12
2017-12-24T01:34:49.403Z,2.12
2017-12-24T01:37:17.059Z,2.10
2017-12-24T01:39:44.654Z,2.03
2017-12-24T01:42:12.263Z,1.99
2017-12-24T01:44:39.927Z,1.94
2017-12-24T01:47:07.595Z,1.90
2017-12-24T01:49:35.191Z,1.85
2017-12-24T01:52:02.799Z,1.80
2017-12-24T01:54:30.411Z,1.82
2017-12-24T01:56:58.019Z,1.89
2017-12-24T01:59:25.673Z,2.13
2017-12-24T02:01:53.274Z,2.19
2017-12-24T02:04:20.874Z,2.25
2017-12-24T02:06:48.546Z,2.30
2017-12-24T02:09:16.196Z,2.43
2017-12-24T02:11:43.837Z,2.56
2017-12-24T02:14:11.494Z,2.58
2017-12-24T02:16:39.151Z,2.63
2017-12-24T02:19:06.819Z,2.62
2017-12-24T02:21:34.422Z,2.59
2017-12-24T02:24:02.083Z,2.58
2017-12-24T02:26:29.742Z,2.64
2017-12-24T02:28:57.346Z,2.71
2017-12-24T02:31:24.951Z,2.76
2017-12-24T02:33:52.614Z,2.80
2017-12-24T02:36:20.271Z,2.93
2017-12-24T02:38:47.935Z,3.01
2017-12-24T02:41:15.599Z,3.04
2017-12-24T02:43:43.207Z,3.10
2017-12-24T02:46:10.806Z,3.11
2017-12-24T02:48:38.466Z,3.08
2017-12-24T02:51:06.118Z,3.03
2017-12-24T02:53:33.699Z,3.05
2017-12-24T02:56:01.304Z,2.98
2017-12-24T02:58:28.910Z,3.03
2017-12-24T03:00:56.622Z,3.11
2017-12-24T03:03:24.290Z,3.10
2017-12-24T03:05:51.897Z,3.06
2017-12-24T03:08:19.564Z,3.13
2017-12-24T03:10:47.221Z,3.17
2017-12-24T03:13:14.876Z,3.33
2017-12-24T03:15:42.482Z,3.50
2017-12-24T03:18:10.092Z,3.68
2017-12-24T03:20:37.755Z,3.75
2017-12-24T03:23:05.411Z,3.86
2017-12-24T03:25:33.066Z,3.89
2017-12-24T03:28:00.662Z,3.96
2017-12-24T03:30:28.324Z,4.04
2017-12-24T03:32:55.938Z,4.10
2017-12-24T03:35:23.538Z,4.15
2017-12-24T03:37:51.251Z,4.21
2017-12-24T03:40:18.915Z,4.21
2017-12-24T03:42:46.518Z,4.23
2017-12-24T03:45:14.128Z,4.25
2017-12-24T03:47:41.732Z,4.27
2017-12-24T03:50:09.392Z,4.27
2017-12-24T03:52:36.990Z,4.38
2017-12-24T03:55:04.651Z,4.40
2017-12-24T03:57:32.253Z,4.45
2017-12-24T03:59:59.858Z,4.49
2017-12-24T04:02:27.576Z,4.54
2017-12-24T04:04:55.231Z,4.58
2017-12-24T04:07:22.830Z,4.64
2017-12-24T04:09:50.438Z,4.74
2017-12-24T04:12:18.066Z,4.73
2017-12-24T04:14:45.719Z,4.84
2017-12-24T04:17:13.318Z,4.78
2017-12-24T04:19:40.915Z,4.84
2017-12-24T04:22:08.574Z,4.87
2017-12-24T04:24:36.188Z,4.96
2017-12-24T04:27:03.854Z,5.03
2017-12-24T04:29:31.446Z,5.05
2017-12-24T04:31:59.040Z,5.09
2017-12-24T04:34:26.711Z,5.08
2017-12-24T04:36:54.307Z,5.17
2017-12-24T04:39:21.950Z,5.18
2017-12-24T04:41:49.613Z,5.25
2017-12-24T04:44:17.206Z,5.26
2017-12-24T04:46:44.875Z,5.28
2017-12-24T04:49:12.468Z,5.30
2017-12-24T04:51:40.122Z,5.32
2017-12-24T04:54:07.714Z,5.40
2017-12-24T04:56:35.379Z,5.42
2017-12-24T04:59:03.038Z,5.46
2017-12-24T05:01:30.639Z,5.47
2017-12-24T05:03:58.354Z,5.48
2017-12-24T05:06:25.946Z,5.49
2017-12-24T05:08:53.538Z,5.48
2017-12-24T05:11:21.142Z,5.50
2017-12-24T05:13:48.795Z,5.55
2017-12-24T05:16:16.442Z,5.67
2017-12-24T05:18:44.046Z,5.74
2017-12-24T05:21:11.695Z,5.82
2017-12-24T05:23:39.306Z,5.88
2017-12-24T05:26:06.894Z,5.89
2017-12-24T05:28:34.543Z,5.92
2017-12-24T05:31:02.134Z,5.94
2017-12-24T05:33:29.791Z,5.95
2017-12-24T05:35:57.390Z,5.98
2017-12-24T05:38:25.047Z,5.98
2017-12-24T05:40:52.703Z,6.01
2017-12-24T05:43:20.354Z,6.01
2017-12-24T05:45:48.011Z,6.08
2017-12-24T05:48:15.618Z,6.13
2017-12-24T05:50:43.275Z,6.16
2017-12-24T05:53:10.922Z,6.22
2017-12-24T05:55:38.522Z,6.19
2017-12-24T05:58:06.183Z,6.28
2017-12-24T06:00:33.799Z,6.31
2017-12-24T06:03:01.401Z,6.32
2017-12-24T06:05:29.058Z,6.34
2017-12-24T06:07:56.719Z,6.34
2017-12-24T06:10:24.314Z,6.38
2017-12-24T06:12:51.927Z,6.44
2017-12-24T06:15:19.519Z,6.48
2017-12-24T06:17:47.234Z,6.58
2017-12-24T06:20:14.840Z,6.61
2017-12-24T06:22:42.442Z,6.65
2017-12-24T06:25:10.054Z,6.62
2017-12-24T06:27:37.662Z,6.60
2017-12-24T06:30:05.371Z,6.62
2017-12-24T06:32:33.035Z,6.62
2017-12-24T06:35:00.656Z,6.69
2017-12-24T06:37:28.264Z,6.74
2017-12-24T06:39:55.934Z,6.78
2017-12-24T06:42:23.578Z,6.83
2017-12-24T06:44:51.238Z,6.96
2017-12-24T06:47:18.839Z,6.97
2017-12-24T06:49:46.443Z,7.03
2017-12-24T06:52:14.043Z,7.12
2017-12-24T06:54:41.725Z,7.23
2017-12-24T06:57:09.391Z,7.27
2017-12-24T06:59:36.988Z,7.31
2017-12-24T07:02:04.595Z,7.38
2017-12-24T07:04:32.203Z,7.46
2017-12-24T07:06:59.858Z,7.60
2017-12-24T07:09:27.523Z,7.65
2017-12-24T07:11:55.122Z,7.82
2017-12-24T07:14:22.740Z,7.95
2017-12-24T07:16:50.335Z,7.97
2017-12-24T07:19:18.006Z,7.97
2017-12-24T07:21:45.615Z,7.97
2017-12-24T07:24:13.284Z,8.09
2017-12-24T07:26:40.951Z,8.19
2017-12-24T07:29:08.552Z,8.21
2017-12-24T07:31:36.221Z,8.22
2017-12-24T07:34:03.884Z,8.13
2017-12-24T07:36:31.486Z,8.04
2017-12-24T07:38:59.097Z,8.04
2017-12-24T07:41:26.702Z,8.06
2017-12-24T07:43:54.389Z,8.14
2017-12-24T07:46:21.990Z,8.12
2017-12-24T07:48:49.594Z,8.23
2017-12-24T07:51:17.226Z,8.35
2017-12-24T07:53:44.891Z,8.35
2017-12-24T07:56:12.555Z,8.44
2017-12-24T07:58:40.155Z,8.43
2017-12-24T08:01:07.876Z,8.45
2017-12-24T08:03:35.552Z,8.33
2017-12-24T08:06:03.156Z,8.29
2017-12-24T08:08:30.806Z,8.13
2017-12-24T08:10:58.469Z,8.30
2017-12-24T08:13:26.070Z,8.40
2017-12-24T08:15:53.674Z,8.62
2017-12-24T08:18:21.384Z,8.66
2017-12-24T08:20:49.050Z,8.86
2017-12-24T08:23:16.715Z,8.97
2017-12-24T08:25:44.375Z,9.19
2017-12-24T08:28:12.053Z,9.30
2017-12-24T08:30:39.650Z,9.48
2017-12-24T08:33:07.322Z,9.56
2017-12-24T08:35:34.923Z,9.76
2017-12-24T08:38:02.615Z,10.06
2017-12-24T08:40:30.288Z,10.27
2017-12-24T08:42:57.907Z,10.25
2017-12-24T08:45:25.562Z,10.31
2017-12-24T08:47:53.234Z,10.35
2017-12-24T08:50:20.851Z,10.35
2017-12-24T08:52:48.467Z,10.22
2017-12-24T08:55:16.071Z,10.10
2017-12-24T08:57:43.735Z,10.14
2017-12-24T09:00:11.355Z,10.07
2017-12-24T09:02:39.023Z,10.19
2017-12-24T09:05:06.639Z,10.36
2017-12-24T09:07:34.264Z,10.50
2017-12-24T09:10:01.926Z,10.59
2017-12-24T09:12:29.593Z,10.84
2017-12-24T09:14:57.207Z,11.17
2017-12-24T09:17:24.887Z,11.39
2017-12-24T09:19:52.501Z,11.61
2017-12-24T09:22:20.275Z,11.68
2017-12-24T09:24:47.944Z,11.87
2017-12-24T09:27:15.559Z,12.25
2017-12-24T09:29:43.227Z,12.09
2017-12-24T09:32:10.844Z,11.82
2017-12-24T09:34:38.519Z,11.50
2017-12-24T09:37:06.118Z,11.52
2017-12-24T09:39:33.719Z,11.61
2017-12-24T09:42:01.339Z,11.82
2017-12-24T09:44:29.001Z,11.96
2017-12-24T09:46:56.731Z,11.79
2017-12-24T09:49:24.350Z,11.67
2017-12-24T09:51:52.016Z,11.46
2017-12-24T09:54:19.696Z,11.51
2017-12-24T09:56:47.310Z,11.64
2017-12-24T09:59:15.031Z,11.34
2017-12-24T10:01:42.712Z,11.11
2017-12-24T10:04:10.325Z,10.93
2017-12-24T10:06:37.947Z,10.73
2017-12-24T10:09:05.594Z,10.80
2017-12-24T10:11:33.348Z,10.76
2017-12-24T10:14:01.028Z,10.69
2017-12-24T10:16:28.621Z,10.62
2017-12-24T10:18:56.311Z,10.52
2017-12-24T10:21:23.935Z,10.56
2017-12-24T10:23:51.610Z,10.63
2017-12-24T10:26:19.227Z,10.75
2017-12-24T10:28:46.836Z,10.58
2017-12-24T10:31:14.450Z,10.48
2017-12-24T10:33:42.122Z,10.45
2017-12-24T10:36:09.811Z,10.42
2017-12-24T10:38:37.418Z,10.54
2017-12-24T10:41:05.040Z,10.65
2017-12-24T10:43:32.720Z,10.67
2017-12-24T10:46:00.401Z,10.53
2017-12-24T10:48:28.062Z,10.54
2017-12-24T10:50:55.671Z,10.46
2017-12-24T10:53:23.279Z,10.35
2017-12-24T10:55:50.895Z,10.45
2017-12-24T10:58:18.568Z,10.38
2017-12-24T11:00:46.358Z,10.40
2017-12-24T11:03:13.969Z,10.32
2017-12-24T11:05:41.590Z,10.28
2017-12-24T11:08:09.250Z,10.16
2017-12-24T11:10:36.867Z,10.08
2017-12-24T11:13:04.536Z,10.13
2017-12-24T11:15:32.207Z,10.08
2017-12-24T11:17:59.897Z,10.17
2017-12-24T11:20:27.580Z,10.13
2017-12-24T11:22:55.256Z,10.10
2017-12-24T11:27:49.884Z,10.08
2017-12-24T11:30:17.491Z,10.14
2017-12-24T11:32:45.122Z,10.12
2017-12-24T11:35:12.731Z,10.12
2017-12-24T11:37:40.406Z,10.25
2017-12-24T11:40:08.055Z,10.23
2017-12-24T11:42:35.670Z,10.21
2017-12-24T11:45:03.291Z,10.20
2017-12-24T11:47:30.898Z,10.25
2017-12-24T11:49:58.566Z,10.34
2017-12-24T11:52:26.175Z,10.38
2017-12-24T11:54:53.846Z,10.46
2017-12-24T11:57:21.469Z,10.29
2017-12-24T11:59:49.075Z,10.29
2017-12-24T12:02:16.810Z,10.36
2017-12-24T12:04:44.426Z,10.43
2017-12-24T12:07:12.036Z,10.43
2017-12-24T12:09:39.665Z,10.47
2017-12-24T12:12:07.274Z,10.48
2017-12-24T12:14:34.995Z,10.57
2017-12-24T12:17:02.610Z,10.64
2017-12-24T12:19:30.224Z,10.67
2017-12-24T12:21:57.911Z,10.58
2017-12-24T12:24:25.531Z,10.53
2017-12-24T12:26:53.288Z,10.53
2017-12-24T12:29:20.895Z,10.53
2017-12-24T12:31:48.504Z,10.61
2017-12-24T12:34:16.183Z,10.59
2017-12-24T12:36:43.882Z,10.62
2017-12-24T12:39:11.549Z,10.58
2017-12-24T12:41:39.223Z,10.63
2017-12-24T12:44:07.775Z,10.62
2017-12-24T12:46:35.394Z,10.61
2017-12-24T12:49:03.027Z,10.57
2017-12-24T12:51:30.794Z,10.60
2017-12-24T12:53:58.420Z,10.58
2017-12-24T12:56:26.027Z,10.63
2017-12-24T12:58:53.655Z,10.62
2017-12-24T13:01:21.273Z,10.69
2017-12-24T13:03:49.047Z,10.79
2017-12-24T13:06:16.659Z,10.77
2017-12-24T13:08:44.343Z,10.83
2017-12-24T13:11:12.019Z,10.87
2017-12-24T13:13:39.639Z,10.88
2017-12-24T13:16:07.314Z,10.91
2017-12-24T13:18:34.984Z,10.84
2017-12-24T13:21:02.603Z,10.87
2017-12-24T13:23:30.225Z,10.94
2017-12-24T13:25:57.901Z,11.01
2017-12-24T13:28:25.568Z,11.04
2017-12-24T13:30:53.256Z,11.16
2017-12-24T13:33:20.866Z,11.17
2017-12-24T13:35:48.487Z,11.16
2017-12-24T13:38:16.099Z,11.10
2017-12-24T13:40:43.771Z,11.10
2017-12-24T13:43:11.440Z,11.14
2017-12-24T13:45:39.046Z,11.06
2017-12-24T13:48:06.731Z,10.99
2017-12-24T13:50:34.345Z,10.90
2017-12-24T13:53:02.000Z,10.78
2017-12-24T13:55:29.678Z,10.80
2017-12-24T13:57:57.363Z,10.70
2017-12-24T14:00:24.982Z,10.68
2017-12-24T14:02:52.650Z,10.60
2017-12-24T14:05:20.315Z,10.59
2017-12-24T14:07:48.032Z,10.46
2017-12-24T14:10:15.644Z,10.35
2017-12-24T14:12:43.379Z,10.39
2017-12-24T14:15:10.985Z,10.33
2017-12-24T14:17:38.771Z,10.21
2017-12-24T14:20:06.379Z,10.21
2017-12-24T14:22:34.052Z,10.08
2017-12-24T14:25:01.668Z,9.95
2017-12-24T14:27:29.270Z,9.85
2017-12-24T14:29:56.989Z,9.82
2017-12-24T14:32:24.664Z,9.81
2017-12-24T14:34:52.327Z,9.88
2017-12-24T14:37:19.952Z,9.84
2017-12-24T14:39:47.615Z,9.79
2017-12-24T14:42:15.285Z,9.83
2017-12-24T14:44:42.980Z,9.72
2017-12-24T14:47:10.594Z,9.74
2017-12-24T14:49:38.207Z,9.70
2017-12-24T14:52:05.818Z,9.77
2017-12-24T14:54:33.474Z,9.71
2017-12-24T14:57:01.087Z,9.67
2017-12-24T14:59:28.722Z,9.69
2017-12-24T15:01:56.340Z,9.65
2017-12-24T15:04:24.009Z,9.62
2017-12-24T15:06:51.676Z,9.65
2017-12-24T15:09:19.332Z,9.66
2017-12-24T15:11:46.997Z,9.71
2017-12-24T15:14:14.683Z,9.65
2017-12-24T15:16:42.280Z,9.67
2017-12-24T15:19:10.021Z,9.68
2017-12-24T15:21:37.683Z,9.60
2017-12-24T15:24:05.372Z,9.62
2017-12-24T15:26:32.990Z,9.52
2017-12-24T15:29:00.608Z,9.40
2017-12-24T15:31:28.279Z,9.34
2017-12-24T15:33:55.944Z,9.33
2017-12-24T15:36:23.555Z,9.24
2017-12-24T15:38:51.228Z,9.25
2017-12-24T15:41:18.891Z,9.21
2017-12-24T15:43:46.547Z,9.26
2017-12-24T15:46:14.156Z,9.21
2017-12-24T15:48:41.774Z,9.20
2017-12-24T15:51:09.454Z,9.19
2017-12-24T15:53:37.125Z,9.21
2017-12-24T15:56:04.803Z,9.18
2017-12-24T15:58:32.410Z,9.12
2017-12-24T16:01:00.016Z,9.19
2017-12-24T16:03:27.635Z,9.26
2017-12-24T16:05:55.243Z,9.19
2017-12-24T16:08:22.931Z,9.22
2017-12-24T16:10:50.542Z,9.26
2017-12-24T16:13:18.153Z,9.21
2017-12-24T16:15:45.771Z,9.15
2017-12-24T16:18:13.463Z,9.05
2017-12-24T16:20:41.123Z,9.19
2017-12-24T16:23:08.783Z,9.21
2017-12-24T16:25:36.386Z,9.18
2017-12-24T16:28:04.005Z,9.09
2017-12-24T16:30:31.643Z,9.11
2017-12-24T16:32:59.298Z,9.14
2017-12-24T16:35:26.960Z,9.08
2017-12-24T16:37:54.563Z,9.09
2017-12-24T16:40:22.239Z,9.12
2017-12-24T16:42:49.834Z,9.15
2017-12-24T16:45:17.511Z,9.21
2017-12-24T16:47:45.119Z,9.30
2017-12-24T16:50:12.731Z,9.24
2017-12-24T16:52:40.409Z,9.11
2017-12-24T16:55:08.079Z,9.01
2017-12-24T16:57:35.764Z,9.08
2017-12-24T17:00:03.419Z,9.10
2017-12-24T17:02:31.456Z,9.10
2017-12-24T17:04:59.080Z,9.08
2017-12-24T17:07:26.772Z,9.22
2017-12-24T17:09:54.515Z,9.12
2017-12-24T17:12:23.013Z,9.11
2017-12-24T17:14:52.891Z,9.15
2017-12-24T17:17:20.510Z,9.06
2017-12-24T17:19:48.180Z,9.03
2017-12-24T17:22:15.840Z,9.02
2017-12-24T17:24:43.478Z,8.99
2017-12-24T17:27:11.083Z,9.02
2017-12-24T17:29:39.378Z,9.03
2017-12-24T17:32:07.515Z,8.98
2017-12-24T17:34:35.240Z,8.92
2017-12-24T17:37:03.470Z,8.94
2017-12-24T17:39:31.697Z,9.04
2017-12-24T17:41:59.312Z,9.07
2017-12-24T17:44:26.916Z,9.10
2017-12-24T17:46:54.594Z,9.21
2017-12-24T17:49:22.271Z,9.14
2017-12-24T17:51:49.882Z,9.14
2017-12-24T17:54:18.207Z,9.22
2017-12-24T17:56:45.857Z,9.14
2017-12-24T17:59:13.514Z,9.15
2017-12-24T18:01:41.139Z,9.09
2017-12-24T18:04:08.750Z,9.17
2017-12-24T18:06:36.366Z,9.15
2017-12-24T18:09:04.084Z,9.31
2017-12-24T18:11:31.807Z,9.26
2017-12-24T18:13:59.484Z,9.18
2017-12-24T18:16:27.091Z,9.13
2017-12-24T18:18:54.743Z,9.35
2017-12-24T18:21:22.357Z,9.23
2017-12-24T18:23:50.045Z,9.31
2017-12-24T18:26:17.711Z,9.36
2017-12-24T18:28:45.316Z,9.29
2017-12-24T18:31:12.930Z,9.26
2017-12-24T18:33:40.548Z,9.34
2017-12-24T18:36:08.203Z,9.44
2017-12-24T18:38:35.811Z,9.40
2017-12-24T18:41:03.452Z,9.42
2017-12-24T18:43:31.067Z,9.47
2017-12-24T18:45:58.671Z,9.44
2017-12-24T18:48:26.333Z,9.39
2017-12-24T18:50:53.934Z,9.37
2017-12-24T18:53:21.665Z,9.28
2017-12-24T18:55:49.338Z,9.28
2017-12-24T18:58:17.031Z,9.39
2017-12-24T19:00:44.770Z,9.34
2017-12-24T19:03:12.379Z,9.24
2017-12-24T19:05:39.994Z,9.22
2017-12-24T19:08:07.628Z,9.17
2017-12-24T19:10:35.304Z,9.23
2017-12-24T19:13:02.984Z,9.25
2017-12-24T19:15:30.587Z,9.28
2017-12-24T19:17:58.252Z,9.21
2017-12-24T19:20:25.866Z,9.21
2017-12-24T19:22:53.546Z,9.12
2017-12-24T19:25:21.207Z,9.04
2017-12-24T19:27:48.820Z,8.91
2017-12-24T19:30:16.436Z,8.98
2017-12-24T19:32:44.055Z,9.05
2017-12-24T19:35:11.659Z,9.07
2017-12-24T19:37:39.331Z,9.12
2017-12-24T19:40:06.991Z,9.30
2017-12-24T19:42:34.654Z,9.27
2017-12-24T19:45:02.282Z,9.14
2017-12-24T19:47:29.943Z,9.29
2017-12-24T19:49:57.617Z,9.29
2017-12-24T19:52:25.284Z,9.39
2017-12-24T19:54:52.896Z,9.27
2017-12-24T19:57:20.507Z,9.26
2017-12-24T19:59:48.120Z,9.19
2017-12-24T20:02:15.807Z,9.18
2017-12-24T20:04:43.419Z,9.06
2017-12-24T20:07:11.030Z,9.17
2017-12-24T20:09:38.747Z,9.09
2017-12-24T20:12:06.351Z,9.05
2017-12-24T20:14:34.071Z,9.03
2017-12-24T20:17:01.740Z,9.05
2017-12-24T20:19:29.416Z,9.06
2017-12-24T20:21:57.031Z,9.05
2017-12-24T20:24:24.641Z,9.09
2017-12-24T20:26:52.356Z,9.10
2017-12-24T20:29:19.959Z,9.15
2017-12-24T20:31:47.635Z,9.17
2017-12-24T20:34:15.241Z,9.08
2017-12-24T20:36:42.850Z,8.95
2017-12-24T20:39:10.521Z,8.84
2017-12-24T20:41:38.133Z,8.78
2017-12-24T20:44:05.735Z,8.75
2017-12-24T20:46:33.353Z,8.70
2017-12-24T20:49:01.028Z,8.67
2017-12-24T20:51:28.771Z,8.61
2017-12-24T20:53:56.435Z,8.57
2017-12-24T20:56:24.104Z,8.54
2017-12-24T20:58:51.781Z,8.60
2017-12-24T21:01:19.391Z,8.53
2017-12-24T21:03:47.070Z,8.48
2017-12-24T21:06:14.689Z,8.43
2017-12-24T21:08:42.365Z,8.44
2017-12-24T21:11:09.978Z,8.44
2017-12-24T21:13:37.586Z,8.39
2017-12-24T21:16:05.249Z,8.30
2017-12-24T21:18:32.858Z,8.38
2017-12-24T21:21:00.473Z,8.37
2017-12-24T21:23:28.084Z,8.29
2017-12-24T21:25:55.696Z,8.25
2017-12-24T21:28:23.424Z,8.22
2017-12-24T21:30:51.093Z,8.14
2017-12-24T21:33:18.700Z,8.19
2017-12-24T21:35:46.316Z,8.14
2017-12-24T21:38:13.920Z,8.14
2017-12-24T21:40:41.591Z,8.18
2017-12-24T21:43:09.192Z,8.22
2017-12-24T21:45:36.810Z,8.28
2017-12-24T21:48:04.477Z,8.28
2017-12-24T21:50:32.088Z,8.28
2017-12-24T21:52:59.750Z,8.36
2017-12-24T21:55:27.354Z,8.32
2017-12-24T21:57:55.015Z,8.72
2017-12-24T22:00:22.643Z,8.79
2017-12-24T22:02:50.316Z,8.76
2017-12-24T22:05:17.983Z,8.80
2017-12-24T22:07:45.654Z,8.85
2017-12-24T22:10:13.319Z,8.88
2017-12-24T22:12:40.944Z,8.96
2017-12-24T22:15:08.542Z,9.26
2017-12-24T22:17:36.258Z,9.24
2017-12-24T22:20:03.859Z,9.12
2017-12-24T22:22:31.522Z,9.23
2017-12-24T22:24:59.134Z,9.37
2017-12-24T22:27:26.739Z,9.42
2017-12-24T22:29:54.402Z,9.47
2017-12-24T22:32:22.064Z,9.39
2017-12-24T22:34:49.658Z,9.35
2017-12-24T22:37:17.278Z,9.53
2017-12-24T22:39:44.895Z,9.63
2017-12-24T22:42:12.570Z,9.92
2017-12-24T22:44:40.169Z,9.98
2017-12-24T22:47:07.770Z,10.14
2017-12-24T22:49:35.375Z,10.18
2017-12-24T22:52:02.983Z,10.38
2017-12-24T22:54:30.673Z,10.50
2017-12-24T22:56:58.288Z,10.45
2017-12-24T22:59:25.907Z,10.36
2017-12-24T23:01:53.524Z,10.30
2017-12-24T23:04:21.130Z,10.36
2017-12-24T23:06:48.794Z,10.37
2017-12-24T23:09:16.456Z,10.18
2017-12-24T23:11:44.059Z,10.09
2017-12-24T23:14:11.672Z,10.15
2017-12-24T23:16:39.351Z,10.21
2017-12-24T23:19:07.090Z,10.18
2017-12-24T23:21:34.691Z,10.04
2017-12-24T23:24:02.354Z,10.10
2017-12-24T23:26:29.970Z,10.02
2017-12-24T23:28:57.627Z,9.99
2017-12-24T23:31:25.348Z,9.99
2017-12-24T23:33:52.955Z,10.20
2017-12-24T23:36:20.562Z,10.21
2017-12-24T23:38:48.173Z,10.10
2017-12-24T23:41:15.838Z,9.91
2017-12-24T23:43:43.498Z,9.83
2017-12-24T23:46:11.095Z,9.88
2017-12-24T23:48:38.763Z,9.88
2017-12-24T23:51:06.430Z,9.96
2017-12-24T23:53:34.035Z,9.88
2017-12-24T23:56:01.683Z,9.82
2017-12-24T23:58:29.298Z,9.86
